Time;durP1;ratioP1;P1;durP2;ratioP2;P2;SDS_P1;SDS_P2;PMS_P1;PMS_P2;Temp;Humidity;BMP_temperature;BMP_pressure;BME280_temperature;BME280_humidity;BME280_pressure;Samples;Min_cycle;Max_cycle;Signal;HPM_P1;HPM_P2
2022/03/23 00:01:08;;;;;;;14.55;13.25;;;11.40;31.60;;;;;;5134072;27;20204;-56
2022/03/23 00:03:37;;;;;;;13.95;12.63;;;11.10;31.80;;;;;;5133784;27;20202;-56
2022/03/23 00:06:06;;;;;;;14.13;12.75;;;10.90;32.70;;;;;;5134118;27;20195;-56
2022/03/23 00:08:32;;;;;;;14.82;13.50;;;10.70;32.90;;;;;;5134003;27;20218;-56
2022/03/23 00:10:59;;;;;;;14.88;13.48;;;10.60;33.00;;;;;;5132964;27;20658;-56
2022/03/23 00:13:26;;;;;;;14.70;13.40;;;10.50;33.60;;;;;;5134007;27;20209;-56
2022/03/23 00:15:54;;;;;;;14.88;13.50;;;10.50;33.90;;;;;;5133623;27;20222;-56
2022/03/23 00:18:21;;;;;;;14.90;13.48;;;10.40;33.90;;;;;;5133777;27;20210;-56
2022/03/23 00:20:48;;;;;;;15.52;14.18;;;10.30;34.60;;;;;;5133503;27;20717;-56
2022/03/23 00:23:16;;;;;;;15.77;14.32;;;10.10;34.70;;;;;;5133638;27;20732;-56
2022/03/23 00:25:43;;;;;;;18.05;15.10;;;10.00;35.60;;;;;;5132315;27;20209;-56
2022/03/23 00:28:10;;;;;;;16.50;14.82;;;9.90;36.10;;;;;;5133616;27;20230;-56
2022/03/23 00:30:38;;;;;;;15.77;14.13;;;9.80;36.00;;;;;;5133430;27;20227;-56
2022/03/23 00:33:05;;;;;;;14.48;13.07;;;9.60;36.10;;;;;;5133769;27;20202;-56
2022/03/23 00:35:32;;;;;;;15.60;14.20;;;9.50;36.70;;;;;;5133706;27;20230;-56
2022/03/23 00:38:00;;;;;;;14.70;13.30;;;9.40;37.50;;;;;;5133445;27;20205;-56
2022/03/23 00:40:29;;;;;;;17.00;15.32;;;9.30;38.00;;;;;;5132299;27;20202;-57
2022/03/23 00:42:58;;;;;;;15.85;14.25;;;9.20;38.30;;;;;;5133709;27;20201;-57
2022/03/23 00:45:25;;;;;;;16.10;14.52;;;9.10;38.60;;;;;;5133418;27;20214;-56
2022/03/23 00:47:52;;;;;;;15.90;14.48;;;9.10;39.20;;;;;;5133550;27;20217;-56
2022/03/23 00:50:19;;;;;;;15.50;13.95;;;9.10;39.60;;;;;;5133462;27;20286;-56
2022/03/23 00:52:47;;;;;;;17.20;14.60;;;9.10;40.50;;;;;;5133333;27;20201;-56
2022/03/23 00:55:15;;;;;;;18.00;15.82;;;9.10;40.70;;;;;;5132265;27;20217;-56
2022/03/23 00:57:44;;;;;;;17.70;15.90;;;9.10;41.30;;;;;;5133288;27;20266;-56
2022/03/23 01:00:16;;;;;;;16.88;15.18;;;9.10;41.50;;;;;;5133504;27;20285;-56
2022/03/23 01:02:44;;;;;;;19.88;16.33;;;9.20;41.70;;;;;;5133359;27;20646;-56
2022/03/23 01:05:13;;;;;;;17.17;15.40;;;9.20;41.90;;;;;;5133379;27;20226;-56
2022/03/23 01:07:41;;;;;;;18.70;16.70;;;9.30;42.40;;;;;;5133195;27;20326;-56
2022/03/23 01:10:11;;;;;;;19.95;16.98;;;9.30;42.50;;;;;;5131881;27;20202;-56
2022/03/23 01:12:38;;;;;;;21.65;17.05;;;9.40;42.70;;;;;;5133329;27;20205;-56
2022/03/23 01:15:08;;;;;;;19.70;17.63;;;9.70;42.10;;;;;;5133527;27;20298;-56
2022/03/23 01:17:35;;;;;;;22.65;17.70;;;9.90;41.70;;;;;;5133378;27;20245;-57
2022/03/23 01:20:03;;;;;;;22.95;18.42;;;10.10;41.60;;;;;;5133281;27;20209;-56
2022/03/23 01:22:29;;;;;;;20.35;18.15;;;10.20;41.80;;;;;;5133114;27;20229;-56
2022/03/23 01:24:56;;;;;;;22.80;19.13;;;10.20;42.00;;;;;;5131713;27;20290;-56
2022/03/23 01:27:23;;;;;;;20.17;18.02;;;10.10;42.30;;;;;;5133164;27;20209;-56
2022/03/23 01:29:50;;;;;;;25.17;18.35;;;10.10;42.10;;;;;;5133024;27;20254;-57
2022/03/23 01:32:18;;;;;;;21.98;18.10;;;10.10;41.70;;;;;;5133472;27;20283;-56
2022/03/23 01:34:45;;;;;;;24.58;17.70;;;10.10;41.30;;;;;;5136964;27;20289;-56
2022/03/23 01:37:12;;;;;;;23.20;17.25;;;10.10;41.40;;;;;;5136622;27;20325;-56
2022/03/23 01:39:40;;;;;;;20.55;17.15;;;10.10;41.50;;;;;;5135392;27;20203;-56
2022/03/23 01:42:07;;;;;;;22.67;18.55;;;10.10;41.30;;;;;;5136619;27;20217;-57
2022/03/23 01:44:34;;;;;;;22.70;18.83;;;10.20;41.40;;;;;;5136625;27;20618;-57
2022/03/23 01:47:07;;;;;;;20.27;17.52;;;10.20;41.10;;;;;;5136504;27;20254;-56
2022/03/23 01:49:36;;;;;;;23.58;17.70;;;10.30;40.90;;;;;;5136588;27;20203;-57
2022/03/23 01:52:05;;;;;;;18.25;16.63;;;10.30;40.90;;;;;;5136282;27;20202;-56
2022/03/23 01:54:32;;;;;;;20.83;17.77;;;10.40;40.70;;;;;;5135121;27;20230;-59
2022/03/23 01:57:00;;;;;;;22.58;19.08;;;10.40;40.30;;;;;;5136362;27;20233;-59
2022/03/23 01:59:28;;;;;;;23.13;18.38;;;10.60;40.10;;;;;;5136479;27;20205;-59
2022/03/23 02:01:55;;;;;;;21.73;18.40;;;10.60;40.00;;;;;;5136625;27;20209;-58
2022/03/23 02:04:23;;;;;;;21.35;17.33;;;10.70;39.60;;;;;;5136467;27;20217;-58
2022/03/23 02:06:52;;;;;;;24.83;18.33;;;10.80;39.40;;;;;;5136517;27;20527;-58
2022/03/23 02:09:20;;;;;;;19.45;16.90;;;10.80;39.30;;;;;;5135024;27;20256;-58
2022/03/23 02:11:49;;;;;;;19.67;17.55;;;10.80;39.20;;;;;;5136375;27;20216;-58
2022/03/23 02:14:16;;;;;;;18.30;16.25;;;10.80;38.90;;;;;;5136295;27;20222;-59
2022/03/23 02:16:44;;;;;;;20.02;16.88;;;10.70;39.10;;;;;;5136077;27;20230;-58
2022/03/23 02:19:11;;;;;;;19.10;17.05;;;10.70;39.10;;;;;;5136007;27;20203;-58
2022/03/23 02:21:43;;;;;;;19.00;15.98;;;10.70;39.30;;;;;;5136236;27;20611;-59
2022/03/23 02:24:10;;;;;;;19.30;16.65;;;10.70;39.30;;;;;;5134781;27;20216;-58
2022/03/23 02:26:38;;;;;;;18.55;16.27;;;10.70;39.20;;;;;;5136070;27;20198;-58
2022/03/23 02:29:05;;;;;;;19.90;17.27;;;10.70;39.20;;;;;;5135730;27;20223;-58
2022/03/23 02:31:32;;;;;;;18.50;16.25;;;10.70;39.20;;;;;;5135573;27;20210;-58
2022/03/23 02:33:59;;;;;;;20.42;17.08;;;10.80;39.20;;;;;;5135789;27;20195;-58
2022/03/23 02:36:26;;;;;;;22.80;17.83;;;10.80;39.20;;;;;;5135711;27;20222;-58
2022/03/23 02:38:55;;;;;;;20.52;16.77;;;10.90;39.30;;;;;;5134216;27;20293;-59
2022/03/23 02:41:21;;;;;;;21.17;17.58;;;10.90;39.30;;;;;;5135682;27;20281;-58
2022/03/23 02:43:48;;;;;;;21.23;16.85;;;10.90;39.30;;;;;;5135462;27;20293;-58
2022/03/23 02:46:17;;;;;;;20.50;17.00;;;11.00;39.50;;;;;;5135405;27;20219;-58
2022/03/23 02:48:44;;;;;;;20.45;17.30;;;11.00;39.40;;;;;;5135561;27;20202;-58
2022/03/23 02:51:10;;;;;;;21.48;18.00;;;11.10;39.80;;;;;;5135579;27;20563;-58
2022/03/23 03:02:17;;;;;;;24.40;19.40;;;10.80;40.40;;;;;;5135448;27;20559;-58
2022/03/23 03:04:44;;;;;;;21.27;17.98;;;11.00;40.40;;;;;;5135381;27;20206;-58
2022/03/23 03:07:11;;;;;;;25.85;19.05;;;11.00;40.30;;;;;;5135172;27;20660;-59
2022/03/23 03:09:38;;;;;;;22.90;19.40;;;11.00;40.20;;;;;;5133814;27;20206;-58
2022/03/23 03:12:07;;;;;;;22.35;18.25;;;11.00;40.30;;;;;;5135252;27;20205;-58
2022/03/23 03:14:34;;;;;;;20.08;17.90;;;10.90;40.30;;;;;;5134986;27;20205;-58
2022/03/23 03:17:01;;;;;;;21.42;18.30;;;10.90;40.10;;;;;;5135068;27;20318;-58
2022/03/23 03:19:28;;;;;;;19.55;17.55;;;10.90;40.40;;;;;;5135038;27;20234;-58
2022/03/23 03:21:55;;;;;;;20.80;17.52;;;10.90;40.20;;;;;;5135090;27;20198;-58
2022/03/23 03:24:22;;;;;;;22.77;18.70;;;10.90;40.70;;;;;;5133580;27;20234;-59
2022/03/23 03:26:50;;;;;;;20.42;17.08;;;10.90;40.30;;;;;;5134910;27;20680;-58
2022/03/23 03:29:18;;;;;;;22.98;18.23;;;10.90;40.40;;;;;;5134698;27;20226;-58
2022/03/23 03:31:45;;;;;;;18.13;16.25;;;10.90;40.20;;;;;;5134961;27;20194;-58
2022/03/23 03:34:12;;;;;;;21.90;17.25;;;10.80;40.60;;;;;;5134611;27;20545;-58
2022/03/23 03:36:40;;;;;;;27.85;20.02;;;10.70;41.20;;;;;;5134643;27;20226;-59
2022/03/23 03:39:08;;;;;;;23.15;19.63;;;10.80;41.00;;;;;;5133273;27;20307;-58
2022/03/23 03:41:36;;;;;;;21.60;17.98;;;10.80;40.80;;;;;;5134819;27;20198;-59
2022/03/23 03:44:03;;;;;;;25.30;19.00;;;10.80;41.70;;;;;;5134538;27;20198;-58
2022/03/23 03:46:31;;;;;;;23.20;18.40;;;10.80;40.90;;;;;;5134525;27;20672;-58
2022/03/23 03:48:58;;;;;;;22.58;18.17;;;10.90;40.70;;;;;;5134368;27;20206;-58
2022/03/23 03:51:25;;;;;;;20.90;17.88;;;10.90;40.80;;;;;;5134426;27;20207;-58
2022/03/23 03:53:52;;;;;;;22.38;18.52;;;10.90;40.70;;;;;;5132970;27;20665;-59
2022/03/23 03:56:19;;;;;;;23.98;19.42;;;10.90;40.60;;;;;;5133871;27;20207;-58
2022/03/23 03:58:46;;;;;;;24.98;19.92;;;10.90;40.80;;;;;;5134296;27;20237;-59
2022/03/23 04:01:14;;;;;;;27.65;20.30;;;10.90;42.10;;;;;;5134148;27;20202;-58
2022/03/23 04:03:42;;;;;;;23.23;19.52;;;10.90;41.20;;;;;;5134211;27;20243;-58
2022/03/23 04:06:09;;;;;;;24.35;20.23;;;10.80;41.20;;;;;;5134321;27;20203;-58
2022/03/23 04:08:36;;;;;;;23.45;20.27;;;10.80;41.10;;;;;;5134059;27;20567;-58
2022/03/23 04:11:04;;;;;;;23.23;19.70;;;10.70;41.40;;;;;;5132812;27;20289;-58
2022/03/23 04:13:31;;;;;;;24.10;19.40;;;10.70;41.80;;;;;;5134265;27;20657;-58
2022/03/23 04:15:57;;;;;;;24.23;19.50;;;10.60;42.00;;;;;;5133964;27;20222;-58
2022/03/23 04:18:24;;;;;;;23.42;18.10;;;10.60;41.90;;;;;;5133947;27;20234;-58
2022/03/23 04:21:01;;;;;;;22.67;18.92;;;10.50;41.90;;;;;;5134042;27;20209;-58
2022/03/23 04:23:28;;;;;;;22.23;18.90;;;10.40;41.80;;;;;;5133755;27;20213;-58
2022/03/23 04:25:56;;;;;;;21.38;18.70;;;10.40;41.70;;;;;;5132632;27;20247;-58
2022/03/23 04:28:22;;;;;;;20.55;18.33;;;10.50;41.70;;;;;;5133568;27;20255;-58
2022/03/23 04:30:49;;;;;;;20.75;18.05;;;10.50;41.80;;;;;;5133940;27;20237;-58
2022/03/23 04:33:16;;;;;;;23.45;19.70;;;10.50;41.70;;;;;;5133838;27;20209;-58
2022/03/23 04:35:43;;;;;;;21.23;18.80;;;10.50;42.40;;;;;;5133961;27;20246;-58
2022/03/23 04:38:11;;;;;;;27.15;19.55;;;10.50;42.40;;;;;;5133569;27;20231;-58
2022/03/23 04:40:38;;;;;;;24.30;19.02;;;10.60;42.10;;;;;;5132438;27;20209;-58
2022/03/23 04:43:05;;;;;;;26.65;20.70;;;10.60;42.30;;;;;;5133593;27;20282;-58
2022/03/23 04:45:32;;;;;;;24.05;19.55;;;10.50;42.70;;;;;;5133601;27;20253;-58
2022/03/23 04:47:59;;;;;;;28.65;21.08;;;10.50;43.00;;;;;;5133568;27;20199;-58
2022/03/23 04:50:26;;;;;;;24.38;18.98;;;10.30;43.70;;;;;;5133723;27;20285;-58
2022/03/23 04:52:53;;;;;;;26.33;19.55;;;10.20;43.90;;;;;;5133535;27;20207;-58
2022/03/23 04:55:21;;;;;;;27.10;20.40;;;10.10;44.50;;;;;;5132337;27;20290;-58
2022/03/23 04:57:48;;;;;;;26.05;20.27;;;9.90;44.30;;;;;;5133352;27;20275;-58
2022/03/23 05:00:19;;;;;;;25.83;20.75;;;9.80;45.00;;;;;;5133573;27;20194;-58
2022/03/23 05:02:46;;;;;;;26.15;21.63;;;9.70;46.50;;;;;;5133652;27;20271;-58
2022/03/23 05:05:14;;;;;;;24.25;19.52;;;9.40;47.70;;;;;;5133665;27;20207;-58
2022/03/23 05:07:43;;;;;;;26.73;18.00;;;9.10;48.60;;;;;;5136306;27;20297;-57
2022/03/23 05:10:11;;;;;;;30.02;22.42;;;8.80;49.50;;;;;;5136175;27;20208;-57
2022/03/23 05:12:41;;;;;;;29.13;20.40;;;8.70;50.20;;;;;;5137594;27;20202;-58
2022/03/23 05:15:09;;;;;;;30.50;21.15;;;8.50;50.70;;;;;;5137468;27;20209;-58
2022/03/23 05:17:37;;;;;;;26.20;20.70;;;8.30;51.00;;;;;;5137385;27;20284;-58
2022/03/23 05:20:06;;;;;;;25.95;21.70;;;8.30;51.60;;;;;;5137390;27;20207;-58
2022/03/23 05:22:33;;;;;;;26.77;19.70;;;8.30;51.60;;;;;;5137246;27;20720;-58
2022/03/23 05:25:00;;;;;;;26.63;19.50;;;8.30;51.50;;;;;;5135836;27;20566;-58
2022/03/23 05:27:26;;;;;;;27.83;19.20;;;8.30;51.60;;;;;;5137254;27;20213;-58
2022/03/23 05:29:55;;;;;;;29.52;22.00;;;8.30;52.20;;;;;;5137154;27;20237;-58
2022/03/23 05:32:21;;;;;;;24.42;20.80;;;8.30;52.30;;;;;;5137102;27;20209;-58
2022/03/23 05:34:50;;;;;;;27.05;21.55;;;8.10;52.50;;;;;;5137147;27;20203;-57
2022/03/23 05:37:17;;;;;;;24.67;20.63;;;8.10;52.50;;;;;;5136979;27;20207;-57
2022/03/23 05:39:44;;;;;;;27.60;18.17;;;8.10;52.20;;;;;;5135503;27;20210;-57
2022/03/23 05:42:12;;;;;;;24.35;18.38;;;8.10;52.30;;;;;;5136941;27;20293;-58
2022/03/23 05:44:39;;;;;;;26.92;20.70;;;8.10;52.20;;;;;;5136706;27;20223;-58
2022/03/23 05:47:07;;;;;;;23.13;18.45;;;8.10;51.70;;;;;;5136951;27;20234;-58
2022/03/23 05:49:34;;;;;;;27.83;19.70;;;8.30;51.00;;;;;;5136801;27;20286;-59
2022/03/23 05:52:01;;;;;;;27.23;19.90;;;8.40;50.20;;;;;;5136664;27;20221;-58
2022/03/23 05:54:28;;;;;;;25.38;20.30;;;8.60;50.20;;;;;;5135228;27;20199;-58
2022/03/23 05:56:55;;;;;;;24.52;20.73;;;8.80;49.80;;;;;;5136676;27;20230;-58
2022/03/23 05:59:22;;;;;;;27.58;20.55;;;8.90;49.70;;;;;;5136588;27;20309;-58
2022/03/23 06:01:49;;;;;;;23.98;19.73;;;8.90;49.00;;;;;;5136494;27;20202;-58
2022/03/23 06:04:18;;;;;;;24.80;21.45;;;9.00;48.60;;;;;;5136437;27;20654;-58
2022/03/23 06:06:44;;;;;;;24.85;20.38;;;9.10;48.50;;;;;;5136473;27;20213;-58
2022/03/23 06:09:12;;;;;;;29.63;18.58;;;9.20;48.30;;;;;;5134907;27;20720;-58
2022/03/23 06:11:39;;;;;;;26.20;19.40;;;9.30;48.60;;;;;;5136469;27;20194;-58
2022/03/23 06:14:07;;;;;;;26.85;21.45;;;9.20;49.40;;;;;;5136436;27;20718;-58
2022/03/23 06:16:34;;;;;;;23.98;20.15;;;9.10;49.70;;;;;;5136300;27;20198;-58
2022/03/23 06:19:01;;;;;;;27.48;20.02;;;8.90;50.30;;;;;;5135350;27;20266;-58
2022/03/23 06:21:29;;;;;;;29.02;22.35;;;8.80;50.50;;;;;;5136302;27;20544;-56
2022/03/23 06:23:56;;;;;;;25.73;19.80;;;8.60;51.00;;;;;;5134710;27;20286;-56
2022/03/23 06:26:23;;;;;;;28.60;22.00;;;8.40;51.70;;;;;;5136133;27;20202;-56
2022/03/23 06:28:49;;;;;;;24.75;20.08;;;8.30;52.20;;;;;;5135943;27;20579;-57
2022/03/23 06:31:16;;;;;;;26.05;21.25;;;8.20;52.80;;;;;;5135763;27;20198;-57
2022/03/23 06:33:43;;;;;;;26.25;20.27;;;8.20;53.00;;;;;;5135992;27;20216;-57
2022/03/23 06:36:10;;;;;;;24.40;21.10;;;8.10;53.20;;;;;;5135901;27;20294;-58
2022/03/23 06:38:38;;;;;;;25.58;20.23;;;8.20;53.00;;;;;;5135629;27;20230;-58
2022/03/23 06:41:07;;;;;;;29.38;21.35;;;8.30;53.10;;;;;;5134548;27;20199;-57
2022/03/23 06:43:34;;;;;;;26.92;20.50;;;8.30;52.80;;;;;;5135785;27;20219;-57
2022/03/23 06:46:01;;;;;;;28.83;19.65;;;8.40;53.30;;;;;;5135604;27;20203;-58
2022/03/23 06:48:28;;;;;;;23.35;19.55;;;8.30;55.60;;;;;;5135509;27;20207;-57
2022/03/23 06:50:55;;;;;;;26.70;19.15;;;8.10;56.30;;;;;;5135638;27;20209;-57
2022/03/23 06:53:22;;;;;;;27.00;22.27;;;7.80;57.60;;;;;;5135525;27;20199;-57
2022/03/23 06:55:50;;;;;;;26.38;20.30;;;7.60;58.20;;;;;;5134223;27;20194;-58
2022/03/23 06:58:17;;;;;;;25.85;21.20;;;7.60;58.70;;;;;;5135384;27;20254;-57
2022/03/23 07:00:44;;;;;;;24.25;18.98;;;7.70;57.40;;;;;;5135245;27;20239;-58
2022/03/23 07:03:11;;;;;;;29.65;21.75;;;7.90;57.70;;;;;;5135366;27;20199;-58
2022/03/23 07:05:38;;;;;;;27.92;20.35;;;7.90;57.60;;;;;;5135265;27;20242;-58
2022/03/23 07:10:51;;;;;;;29.23;22.48;;;7.90;57.20;;;;;;5133930;27;20564;-58
2022/03/23 07:13:17;;;;;;;27.50;20.70;;;7.90;56.80;;;;;;5135026;27;20199;-57
2022/03/23 07:15:46;;;;;;;28.67;22.23;;;7.80;57.40;;;;;;5134999;27;20206;-58
2022/03/23 07:18:13;;;;;;;29.25;22.77;;;7.60;57.50;;;;;;5134950;27;20222;-57
2022/03/23 07:20:40;;;;;;;25.15;20.63;;;7.60;58.10;;;;;;5134970;27;20241;-57
2022/03/23 07:23:07;;;;;;;30.65;23.23;;;7.50;59.00;;;;;;5134762;27;20245;-57
2022/03/23 07:25:34;;;;;;;30.73;22.67;;;7.30;59.40;;;;;;5133540;27;20205;-57
2022/03/23 07:28:03;;;;;;;26.27;21.15;;;7.40;59.60;;;;;;5134717;27;20209;-57
2022/03/23 07:30:30;;;;;;;29.38;22.15;;;7.60;59.20;;;;;;5133810;27;20238;-57
2022/03/23 07:32:57;;;;;;;27.05;20.83;;;7.70;58.70;;;;;;5134854;27;20230;-57
2022/03/23 07:35:24;;;;;;;28.65;22.67;;;7.90;58.30;;;;;;5134751;27;20205;-57
2022/03/23 07:37:50;;;;;;;29.00;22.20;;;8.00;57.80;;;;;;5134503;27;20286;-57
2022/03/23 07:40:17;;;;;;;27.52;21.17;;;8.10;57.40;;;;;;5133179;27;20195;-57
2022/03/23 07:42:44;;;;;;;30.48;22.30;;;8.20;56.90;;;;;;5134459;27;20219;-57
2022/03/23 07:45:13;;;;;;;26.10;20.75;;;8.30;56.40;;;;;;5134566;27;20290;-57
2022/03/23 07:47:40;;;;;;;31.92;22.85;;;8.50;55.90;;;;;;5134536;27;20233;-57
2022/03/23 07:50:08;;;;;;;28.70;21.33;;;8.70;54.10;;;;;;5134456;27;20202;-57
2022/03/23 07:52:35;;;;;;;26.40;21.45;;;8.90;54.10;;;;;;5134407;27;20561;-57
2022/03/23 07:55:02;;;;;;;25.15;21.98;;;9.10;53.20;;;;;;5132819;27;20203;-57
2022/03/23 07:57:30;;;;;;;25.65;21.30;;;9.40;52.90;;;;;;5134367;27;20675;-57
2022/03/23 07:59:57;;;;;;;22.95;19.45;;;9.70;51.60;;;;;;5134167;27;20241;-57
2022/03/23 08:02:26;;;;;;;21.80;19.58;;;9.80;48.40;;;;;;5134293;27;20199;-57
2022/03/23 08:04:54;;;;;;;25.08;21.10;;;9.90;46.70;;;;;;5134326;27;20283;-57
2022/03/23 08:07:22;;;;;;;24.02;19.20;;;10.00;47.10;;;;;;5134195;27;20198;-57
2022/03/23 08:09:48;;;;;;;22.20;19.85;;;10.20;47.40;;;;;;5132772;27;20203;-57
2022/03/23 08:12:17;;;;;;;24.20;21.70;;;10.30;47.00;;;;;;5134066;27;20226;-57
2022/03/23 08:14:44;;;;;;;22.17;19.70;;;10.50;46.70;;;;;;5134242;27;20202;-57
2022/03/23 08:17:11;;;;;;;25.70;22.23;;;10.70;46.90;;;;;;5133991;27;20207;-57
2022/03/23 08:19:40;;;;;;;24.95;19.60;;;10.80;44.80;;;;;;5133776;27;20627;-58
2022/03/23 08:22:07;;;;;;;25.92;21.10;;;10.80;46.40;;;;;;5133864;27;20290;-58
2022/03/23 08:24:34;;;;;;;21.80;18.65;;;11.00;46.00;;;;;;5132469;27;20230;-58
2022/03/23 08:27:00;;;;;;;21.58;19.30;;;11.00;44.10;;;;;;5133918;27;20234;-58
2022/03/23 08:29:27;;;;;;;28.35;21.13;;;11.10;45.40;;;;;;5133613;27;20779;-58
2022/03/23 08:31:55;;;;;;;25.35;21.80;;;11.30;45.30;;;;;;5133929;27;20202;-58
2022/03/23 08:34:21;;;;;;;22.20;19.90;;;11.50;45.40;;;;;;5133890;27;20198;-58
2022/03/23 08:36:50;;;;;;;21.85;19.63;;;11.70;45.20;;;;;;5133703;27;20199;-58
2022/03/23 08:39:17;;;;;;;24.35;19.25;;;11.80;44.10;;;;;;5132265;27;20237;-58
2022/03/23 08:41:44;;;;;;;26.00;20.75;;;11.90;42.90;;;;;;5133578;27;20307;-58
2022/03/23 08:44:11;;;;;;;21.67;19.48;;;11.80;42.00;;;;;;5133629;27;20688;-58
2022/03/23 08:46:38;;;;;;;22.67;20.40;;;11.70;43.40;;;;;;5133797;27;20206;-57
2022/03/23 08:49:05;;;;;;;22.83;20.45;;;11.90;44.10;;;;;;5133566;27;20234;-58
2022/03/23 08:51:31;;;;;;;23.13;20.65;;;12.10;43.70;;;;;;5133615;27;20198;-57
2022/03/23 08:54:00;;;;;;;26.40;21.70;;;12.30;43.20;;;;;;5132187;27;20209;-57
2022/03/23 08:56:27;;;;;;;28.80;24.30;;;12.40;43.40;;;;;;5133675;27;20207;-57
2022/03/23 08:58:54;;;;;;;28.73;22.98;;;12.60;46.30;;;;;;5133551;27;20313;-60
2022/03/23 09:01:20;;;;;;;27.95;22.27;;;12.70;46.10;;;;;;5133573;27;20225;-59
2022/03/23 09:03:47;;;;;;;26.70;23.40;;;12.90;46.50;;;;;;5133709;27;20202;-59
2022/03/23 09:06:14;;;;;;;24.67;22.10;;;13.00;46.20;;;;;;5133720;27;20206;-59
2022/03/23 09:08:41;;;;;;;27.10;23.90;;;13.20;45.80;;;;;;5133451;27;20572;-59
2022/03/23 09:11:09;;;;;;;29.10;24.20;;;13.30;45.60;;;;;;5132147;27;20289;-59
2022/03/23 09:13:36;;;;;;;27.95;22.77;;;13.40;45.50;;;;;;5133415;27;20234;-59
2022/03/23 09:16:03;;;;;;;25.35;20.83;;;13.40;45.30;;;;;;5133412;27;20691;-59
2022/03/23 09:18:31;;;;;;;28.45;23.33;;;13.50;45.00;;;;;;5133168;27;20230;-59
2022/03/23 09:20:58;;;;;;;25.85;23.13;;;13.60;44.70;;;;;;5133311;27;20207;-59
2022/03/23 09:23:25;;;;;;;31.65;25.17;;;13.60;44.60;;;;;;5133337;27;20199;-59
2022/03/23 09:25:52;;;;;;;27.67;23.70;;;13.60;43.70;;;;;;5131993;27;20237;-59
2022/03/23 09:28:21;;;;;;;32.40;24.65;;;13.70;43.10;;;;;;5133247;27;20198;-59
2022/03/23 09:30:48;;;;;;;27.73;24.80;;;13.70;43.40;;;;;;5133199;27;20281;-59
2022/03/23 09:33:15;;;;;;;31.27;24.60;;;13.70;43.50;;;;;;5133286;27;20289;-59
2022/03/23 09:35:42;;;;;;;30.20;25.42;;;13.80;43.40;;;;;;5133272;27;20194;-59
2022/03/23 09:38:08;;;;;;;29.77;24.92;;;13.80;43.40;;;;;;5133223;27;20289;-57
2022/03/23 09:40:35;;;;;;;27.73;24.27;;;13.90;42.50;;;;;;5131781;27;20317;-59
2022/03/23 09:43:04;;;;;;;28.27;24.00;;;13.90;42.50;;;;;;5133097;27;20983;-57
2022/03/23 09:45:46;;;;;;;27.90;23.73;;;14.00;42.70;;;;;;5133126;27;20209;-60
2022/03/23 09:48:16;;;;;;;29.63;24.45;;;14.00;42.80;;;;;;5133133;27;20199;-60
2022/03/23 09:50:44;;;;;;;28.08;22.33;;;14.10;42.70;;;;;;5133177;27;20199;-59
2022/03/23 09:53:12;;;;;;;28.02;23.73;;;14.20;42.40;;;;;;5133495;27;20297;-60
2022/03/23 09:55:39;;;;;;;28.70;23.50;;;14.30;42.20;;;;;;5135328;27;20198;-59
2022/03/23 09:58:07;;;;;;;29.50;24.90;;;14.30;42.30;;;;;;5136536;27;20735;-57
2022/03/23 10:00:37;;;;;;;29.75;24.77;;;14.40;42.00;;;;;;5136613;27;20235;-57
2022/03/23 10:03:41;;;;;;;28.77;24.88;;;14.50;42.40;;;;;;5136633;27;20289;-59
2022/03/23 10:06:47;;;;;;;26.58;23.67;;;14.60;42.40;;;;;;5136592;27;20198;-59
2022/03/23 10:09:54;;;;;;;30.63;24.45;;;14.80;41.80;;;;;;5135033;27;20203;-59
2022/03/23 10:13:29;;;;;;;27.65;24.50;;;14.90;41.70;;;;;;5136420;27;20202;-59
2022/03/23 10:16:35;;;;;;;27.45;24.35;;;15.00;41.40;;;;;;5136244;27;20202;-59
2022/03/23 10:19:04;;;;;;;31.00;23.27;;;15.10;41.40;;;;;;5135997;27;20226;-60
2022/03/23 10:21:35;;;;;;;28.48;25.48;;;15.20;41.90;;;;;;5136237;27;20202;-59
2022/03/23 10:24:34;;;;;;;31.20;25.02;;;15.30;41.90;;;;;;5134736;27;20206;-59
2022/03/23 10:27:06;;;;;;;26.52;23.55;;;15.40;41.40;;;;;;5136135;27;20199;-59
2022/03/23 10:29:33;;;;;;;25.85;22.25;;;15.60;41.00;;;;;;5135842;27;20696;-60
2022/03/23 10:32:08;;;;;;;25.52;21.50;;;15.70;39.90;;;;;;5136072;27;20205;-60
2022/03/23 10:34:45;;;;;;;27.08;24.10;;;15.70;39.30;;;;;;5135953;27;20206;-60
2022/03/23 10:37:13;;;;;;;24.20;21.90;;;15.80;38.50;;;;;;5135997;27;20606;-60
2022/03/23 10:39:40;;;;;;;24.35;21.90;;;15.80;38.60;;;;;;5134380;27;20496;-60
2022/03/23 10:42:10;;;;;;;24.08;21.58;;;16.00;37.90;;;;;;5135800;27;20496;-60
2022/03/23 10:44:37;;;;;;;23.55;21.35;;;16.00;36.50;;;;;;5135804;27;20582;-59
2022/03/23 10:47:05;;;;;;;24.23;21.87;;;16.00;36.90;;;;;;5135811;27;20202;-59
2022/03/23 10:49:36;;;;;;;21.73;19.73;;;16.20;37.30;;;;;;5135802;27;20527;-60
2022/03/23 10:52:15;;;;;;;24.70;22.30;;;16.40;35.30;;;;;;5135704;27;20445;-59
2022/03/23 10:54:53;;;;;;;21.80;19.80;;;16.50;36.00;;;;;;5134228;27;20444;-60
2022/03/23 10:57:20;;;;;;;22.37;20.27;;;16.80;34.30;;;;;;5135572;27;20958;-60
2022/03/23 10:59:48;;;;;;;21.70;19.50;;;16.90;35.20;;;;;;5135445;27;20487;-60
2022/03/23 11:02:16;;;;;;;20.70;18.70;;;17.10;33.70;;;;;;5135712;27;20531;-60
2022/03/23 11:04:49;;;;;;;21.30;19.30;;;17.30;33.60;;;;;;5135245;27;20476;-60
2022/03/23 11:07:28;;;;;;;21.03;19.13;;;17.40;32.40;;;;;;5135374;27;20452;-60
2022/03/23 11:18:11;;;;;;;21.93;19.63;;;17.80;29.20;;;;;;5135236;27;20439;-60
2022/03/23 11:20:46;;;;;;;21.67;19.47;;;17.90;29.20;;;;;;5134938;27;20491;-60
2022/03/23 11:23:19;;;;;;;20.80;18.63;;;18.40;29.50;;;;;;5134906;27;20526;-57
2022/03/23 11:25:46;;;;;;;20.63;18.60;;;19.90;28.30;;;;;;5133392;27;20441;-57
2022/03/23 11:28:15;;;;;;;21.07;19.27;;;21.90;26.20;;;;;;5134982;27;20867;-57
2022/03/23 11:30:42;;;;;;;18.17;16.87;;;23.80;24.90;;;;;;5134546;27;20479;-58
2022/03/23 11:33:11;;;;;;;19.37;17.77;;;25.50;22.60;;;;;;5134689;27;20444;-58
2022/03/23 11:35:47;;;;;;;19.47;17.83;;;27.00;21.80;;;;;;5134785;27;20472;-58
2022/03/23 11:38:15;;;;;;;17.20;15.63;;;28.10;20.20;;;;;;5134672;27;20432;-58
2022/03/23 11:40:45;;;;;;;17.37;16.00;;;29.00;19.50;;;;;;5133002;27;20492;-58
2022/03/23 11:43:12;;;;;;;20.67;18.83;;;29.30;18.70;;;;;;5134504;27;20539;-58
2022/03/23 11:45:40;;;;;;;20.03;18.53;;;29.00;18.70;;;;;;5134532;27;21031;-58
2022/03/23 11:48:16;;;;;;;19.77;18.20;;;28.50;18.30;;;;;;5134431;27;20535;-58
2022/03/23 11:50:58;;;;;;;19.27;17.77;;;28.00;17.70;;;;;;5134255;27;20448;-58
2022/03/23 11:53:33;;;;;;;19.90;18.27;;;27.60;18.30;;;;;;5134431;27;20445;-58
2022/03/23 11:56:02;;;;;;;20.77;19.03;;;27.60;18.90;;;;;;5132808;27;20808;-58
2022/03/23 11:58:37;;;;;;;20.50;18.83;;;27.50;18.60;;;;;;5134331;27;20449;-58
2022/03/23 12:01:09;;;;;;;19.17;17.70;;;27.20;18.10;;;;;;5134049;27;20491;-58
2022/03/23 12:03:55;;;;;;;20.37;18.67;;;26.80;18.00;;;;;;5134225;27;20442;-58
2022/03/23 12:06:23;;;;;;;19.53;17.80;;;26.40;18.30;;;;;;5134094;27;20519;-58
2022/03/23 12:08:52;;;;;;;19.47;17.97;;;26.20;18.60;;;;;;5133669;27;20441;-58
2022/03/23 12:11:35;;;;;;;19.20;17.60;;;25.90;18.60;;;;;;5133799;27;20968;-58
2022/03/23 12:14:04;;;;;;;19.30;17.70;;;25.80;17.60;;;;;;5134083;27;20451;-58
2022/03/23 12:17:02;;;;;;;19.60;17.60;;;25.40;18.50;;;;;;5133552;27;20793;-57
2022/03/23 12:19:31;;;;;;;20.60;18.90;;;25.00;18.50;;;;;;5121284;27;21014;-58
2022/03/23 12:22:14;;;;;;;20.10;18.40;;;24.70;18.60;;;;;;5133835;27;20455;-58
2022/03/23 12:24:48;;;;;;;19.80;18.30;;;24.40;19.60;;;;;;5132504;27;20444;-57
2022/03/23 12:27:27;;;;;;;22.50;20.60;;;24.00;19.50;;;;;;5133943;27;20787;-58
2022/03/23 12:29:59;;;;;;;18.77;17.10;;;23.50;20.40;;;;;;5133742;27;20476;-58
2022/03/23 12:32:37;;;;;;;21.47;19.30;;;23.10;20.20;;;;;;5133800;27;20446;-57
2022/03/23 12:35:04;;;;;;;20.83;19.13;;;22.90;20.60;;;;;;5133858;27;20436;-59
2022/03/23 12:37:38;;;;;;;20.70;18.90;;;22.80;20.90;;;;;;5133840;27;20440;-60
2022/03/23 12:40:09;;;;;;;19.60;17.60;;;22.70;21.10;;;;;;5132229;27;21017;-60
2022/03/23 12:42:42;;;;;;;18.07;16.27;;;22.60;21.10;;;;;;5133558;27;20459;-59
2022/03/23 12:45:15;;;;;;;20.50;18.80;;;22.30;22.70;;;;;;5133679;27;20454;-60
2022/03/23 12:47:54;;;;;;;19.57;17.87;;;22.00;21.80;;;;;;5133667;27;20528;-60
2022/03/23 12:58:51;;;;;;;22.63;20.53;;;21.90;21.20;;;;;;5133689;28;20477;-59
2022/03/23 13:01:19;;;;;;;20.43;18.60;;;22.00;22.00;;;;;;5133346;27;21018;-59
2022/03/23 13:03:56;;;;;;;20.00;18.10;;;22.10;22.20;;;;;;5133561;27;20855;-59
2022/03/23 13:06:38;;;;;;;21.07;19.17;;;22.30;21.10;;;;;;5133559;27;20505;-59
2022/03/23 13:09:10;;;;;;;19.00;17.10;;;22.30;21.90;;;;;;5132264;27;20527;-62